sensor_id;sensor_type;location;lat;lon;timestamp;P1;durP1;ratioP1;P2;durP2;ratioP2
48945;SDS011;34999;50.940;3.998;2024-03-25T00:01:18;20.63;;;10.20;;
48945;SDS011;34999;50.940;3.998;2024-03-25T00:03:47;19.80;;;10.43;;
48945;SDS011;34999;50.940;3.998;2024-03-25T00:06:15;16.50;;;9.67;;
48945;SDS011;34999;50.940;3.998;2024-03-25T00:08:42;18.20;;;11.17;;
48945;SDS011;34999;50.940;3.998;2024-03-25T00:11:12;20.27;;;11.40;;
48945;SDS011;34999;50.940;3.998;2024-03-25T00:13:39;18.87;;;10.70;;
48945;SDS011;34999;50.940;3.998;2024-03-25T00:16:10;18.23;;;11.33;;
48945;SDS011;34999;50.940;3.998;2024-03-25T00:18:39;14.00;;;10.53;;
48945;SDS011;34999;50.940;3.998;2024-03-25T00:21:07;19.53;;;11.23;;
48945;SDS011;34999;50.940;3.998;2024-03-25T00:23:34;19.37;;;11.23;;
48945;SDS011;34999;50.940;3.998;2024-03-25T00:26:02;17.77;;;10.73;;
48945;SDS011;34999;50.940;3.998;2024-03-25T00:28:32;14.73;;;10.57;;
48945;SDS011;34999;50.940;3.998;2024-03-25T00:30:59;16.43;;;10.17;;
48945;SDS011;34999;50.940;3.998;2024-03-25T00:33:27;19.50;;;10.67;;
48945;SDS011;34999;50.940;3.998;2024-03-25T00:35:56;20.00;;;11.20;;
48945;SDS011;34999;50.940;3.998;2024-03-25T00:38:23;24.17;;;11.40;;
48945;SDS011;34999;50.940;3.998;2024-03-25T00:40:51;15.17;;;9.93;;
48945;SDS011;34999;50.940;3.998;2024-03-25T00:43:18;15.80;;;10.87;;
48945;SDS011;34999;50.940;3.998;2024-03-25T00:45:46;22.53;;;10.47;;
48945;SDS011;34999;50.940;3.998;2024-03-25T00:48:13;18.37;;;10.33;;
48945;SDS011;34999;50.940;3.998;2024-03-25T00:50:41;16.33;;;10.33;;
48945;SDS011;34999;50.940;3.998;2024-03-25T00:53:09;22.10;;;10.90;;
48945;SDS011;34999;50.940;3.998;2024-03-25T00:55:38;17.17;;;10.97;;
48945;SDS011;34999;50.940;3.998;2024-03-25T00:58:05;18.63;;;11.00;;
48945;SDS011;34999;50.940;3.998;2024-03-25T01:00:33;22.03;;;10.80;;
48945;SDS011;34999;50.940;3.998;2024-03-25T01:03:02;22.43;;;11.43;;
48945;SDS011;34999;50.940;3.998;2024-03-25T01:05:31;20.63;;;12.00;;
48945;SDS011;34999;50.940;3.998;2024-03-25T01:11:07;16.53;;;11.33;;
48945;SDS011;34999;50.940;3.998;2024-03-25T01:13:33;17.17;;;10.87;;
48945;SDS011;34999;50.940;3.998;2024-03-25T01:16:03;15.60;;;10.27;;
48945;SDS011;34999;50.940;3.998;2024-03-25T01:18:31;18.67;;;10.37;;
48945;SDS011;34999;50.940;3.998;2024-03-25T01:21:01;14.20;;;9.83;;
48945;SDS011;34999;50.940;3.998;2024-03-25T01:23:28;19.70;;;11.20;;
48945;SDS011;34999;50.940;3.998;2024-03-25T01:25:56;16.10;;;10.30;;
48945;SDS011;34999;50.940;3.998;2024-03-25T01:28:27;19.87;;;10.70;;
48945;SDS011;34999;50.940;3.998;2024-03-25T01:30:58;18.93;;;11.23;;
48945;SDS011;34999;50.940;3.998;2024-03-25T01:33:25;17.97;;;10.93;;
48945;SDS011;34999;50.940;3.998;2024-03-25T01:35:52;14.97;;;10.23;;
48945;SDS011;34999;50.940;3.998;2024-03-25T01:38:21;15.47;;;10.27;;
48945;SDS011;34999;50.940;3.998;2024-03-25T01:40:51;15.17;;;10.10;;
48945;SDS011;34999;50.940;3.998;2024-03-25T01:43:18;17.67;;;10.43;;
48945;SDS011;34999;50.940;3.998;2024-03-25T01:45:47;17.50;;;10.40;;
48945;SDS011;34999;50.940;3.998;2024-03-25T01:48:14;21.97;;;11.40;;
48945;SDS011;34999;50.940;3.998;2024-03-25T01:50:45;19.33;;;11.00;;
48945;SDS011;34999;50.940;3.998;2024-03-25T01:53:12;15.97;;;10.77;;
48945;SDS011;34999;50.940;3.998;2024-03-25T01:55:49;21.93;;;10.77;;
48945;SDS011;34999;50.940;3.998;2024-03-25T01:58:22;18.73;;;10.43;;
48945;SDS011;34999;50.940;3.998;2024-03-25T02:00:57;15.70;;;10.67;;
48945;SDS011;34999;50.940;3.998;2024-03-25T02:03:27;18.07;;;10.40;;
48945;SDS011;34999;50.940;3.998;2024-03-25T02:05:59;18.70;;;10.63;;
48945;SDS011;34999;50.940;3.998;2024-03-25T02:08:31;17.60;;;11.70;;
48945;SDS011;34999;50.940;3.998;2024-03-25T02:10:58;16.03;;;9.80;;
48945;SDS011;34999;50.940;3.998;2024-03-25T02:13:28;17.17;;;10.50;;
48945;SDS011;34999;50.940;3.998;2024-03-25T02:15:58;17.30;;;10.23;;
48945;SDS011;34999;50.940;3.998;2024-03-25T02:18:25;16.43;;;10.83;;
48945;SDS011;34999;50.940;3.998;2024-03-25T02:20:52;14.00;;;9.47;;
48945;SDS011;34999;50.940;3.998;2024-03-25T02:23:26;17.23;;;10.27;;
48945;SDS011;34999;50.940;3.998;2024-03-25T02:25:55;16.50;;;10.70;;
48945;SDS011;34999;50.940;3.998;2024-03-25T02:28:22;22.93;;;11.17;;
48945;SDS011;34999;50.940;3.998;2024-03-25T02:30:53;18.77;;;10.47;;
48945;SDS011;34999;50.940;3.998;2024-03-25T02:33:21;16.57;;;10.60;;
48945;SDS011;34999;50.940;3.998;2024-03-25T02:35:49;19.17;;;10.63;;
48945;SDS011;34999;50.940;3.998;2024-03-25T02:38:19;15.07;;;10.37;;
48945;SDS011;34999;50.940;3.998;2024-03-25T02:40:48;16.43;;;10.57;;
48945;SDS011;34999;50.940;3.998;2024-03-25T02:43:17;20.57;;;11.27;;
48945;SDS011;34999;50.940;3.998;2024-03-25T02:45:47;16.83;;;10.60;;
48945;SDS011;34999;50.940;3.998;2024-03-25T02:48:14;15.70;;;10.53;;
48945;SDS011;34999;50.940;3.998;2024-03-25T02:54:23;17.97;;;10.73;;
48945;SDS011;34999;50.940;3.998;2024-03-25T02:56:51;20.13;;;11.80;;
48945;SDS011;34999;50.940;3.998;2024-03-25T02:59:20;26.90;;;11.80;;
48945;SDS011;34999;50.940;3.998;2024-03-25T03:01:49;20.83;;;11.40;;
48945;SDS011;34999;50.940;3.998;2024-03-25T03:04:15;22.03;;;11.27;;
48945;SDS011;34999;50.940;3.998;2024-03-25T03:06:46;19.80;;;11.33;;
48945;SDS011;34999;50.940;3.998;2024-03-25T03:09:16;22.33;;;11.33;;
48945;SDS011;34999;50.940;3.998;2024-03-25T03:11:44;17.37;;;11.53;;
48945;SDS011;34999;50.940;3.998;2024-03-25T03:14:10;15.83;;;10.27;;
48945;SDS011;34999;50.940;3.998;2024-03-25T03:16:42;19.40;;;11.07;;
48945;SDS011;34999;50.940;3.998;2024-03-25T03:25:38;18.30;;;11.13;;
48945;SDS011;34999;50.940;3.998;2024-03-25T03:28:06;24.73;;;11.87;;
48945;SDS011;34999;50.940;3.998;2024-03-25T03:30:33;18.97;;;11.70;;
48945;SDS011;34999;50.940;3.998;2024-03-25T03:33:05;26.77;;;12.37;;
48945;SDS011;34999;50.940;3.998;2024-03-25T03:35:33;28.60;;;12.00;;
48945;SDS011;34999;50.940;3.998;2024-03-25T03:38:00;22.23;;;11.80;;
48945;SDS011;34999;50.940;3.998;2024-03-25T03:40:29;21.60;;;11.70;;
48945;SDS011;34999;50.940;3.998;2024-03-25T03:42:55;28.50;;;12.37;;
48945;SDS011;34999;50.940;3.998;2024-03-25T03:45:24;26.90;;;12.10;;
48945;SDS011;34999;50.940;3.998;2024-03-25T03:47:51;27.33;;;12.23;;
48945;SDS011;34999;50.940;3.998;2024-03-25T03:50:20;25.13;;;12.13;;
48945;SDS011;34999;50.940;3.998;2024-03-25T03:52:48;31.93;;;12.60;;
48945;SDS011;34999;50.940;3.998;2024-03-25T03:55:16;30.87;;;12.73;;
48945;SDS011;34999;50.940;3.998;2024-03-25T04:00:36;31.57;;;12.87;;
48945;SDS011;34999;50.940;3.998;2024-03-25T04:03:04;41.10;;;13.40;;
48945;SDS011;34999;50.940;3.998;2024-03-25T04:05:34;40.03;;;14.40;;
48945;SDS011;34999;50.940;3.998;2024-03-25T04:08:01;36.30;;;13.20;;
48945;SDS011;34999;50.940;3.998;2024-03-25T04:10:29;39.10;;;13.83;;
48945;SDS011;34999;50.940;3.998;2024-03-25T04:12:56;54.47;;;14.33;;
48945;SDS011;34999;50.940;3.998;2024-03-25T04:15:26;38.80;;;14.53;;
48945;SDS011;34999;50.940;3.998;2024-03-25T04:17:58;58.23;;;14.87;;
48945;SDS011;34999;50.940;3.998;2024-03-25T04:32:50;52.93;;;16.57;;
48945;SDS011;34999;50.940;3.998;2024-03-25T04:35:18;54.50;;;16.73;;
48945;SDS011;34999;50.940;3.998;2024-03-25T04:37:49;63.60;;;15.53;;
48945;SDS011;34999;50.940;3.998;2024-03-25T04:40:17;47.37;;;15.27;;
48945;SDS011;34999;50.940;3.998;2024-03-25T04:42:44;41.63;;;15.97;;
48945;SDS011;34999;50.940;3.998;2024-03-25T04:45:11;50.27;;;16.10;;
48945;SDS011;34999;50.940;3.998;2024-03-25T04:54:07;64.03;;;16.83;;
48945;SDS011;34999;50.940;3.998;2024-03-25T04:56:36;62.83;;;16.63;;
48945;SDS011;34999;50.940;3.998;2024-03-25T04:59:03;50.50;;;16.53;;
48945;SDS011;34999;50.940;3.998;2024-03-25T05:01:32;59.83;;;16.03;;
48945;SDS011;34999;50.940;3.998;2024-03-25T05:03:59;50.83;;;16.73;;
48945;SDS011;34999;50.940;3.998;2024-03-25T05:06:27;44.00;;;15.93;;
48945;SDS011;34999;50.940;3.998;2024-03-25T05:08:54;73.47;;;16.67;;
48945;SDS011;34999;50.940;3.998;2024-03-25T05:11:25;56.17;;;15.63;;
48945;SDS011;34999;50.940;3.998;2024-03-25T05:13:55;58.63;;;16.93;;
48945;SDS011;34999;50.940;3.998;2024-03-25T05:16:24;66.17;;;17.50;;
48945;SDS011;34999;50.940;3.998;2024-03-25T05:18:51;55.63;;;16.90;;
48945;SDS011;34999;50.940;3.998;2024-03-25T05:21:18;63.20;;;17.67;;
48945;SDS011;34999;50.940;3.998;2024-03-25T05:23:46;54.13;;;16.63;;
48945;SDS011;34999;50.940;3.998;2024-03-25T05:26:13;63.40;;;16.70;;
48945;SDS011;34999;50.940;3.998;2024-03-25T05:28:41;53.10;;;16.90;;
48945;SDS011;34999;50.940;3.998;2024-03-25T05:31:08;62.17;;;16.00;;
48945;SDS011;34999;50.940;3.998;2024-03-25T05:33:35;63.40;;;17.20;;
48945;SDS011;34999;50.940;3.998;2024-03-25T05:36:03;59.23;;;16.17;;
48945;SDS011;34999;50.940;3.998;2024-03-25T05:38:30;67.70;;;16.73;;
48945;SDS011;34999;50.940;3.998;2024-03-25T05:40:59;58.40;;;15.53;;
48945;SDS011;34999;50.940;3.998;2024-03-25T05:43:29;56.30;;;16.03;;
48945;SDS011;34999;50.940;3.998;2024-03-25T05:46:01;49.97;;;15.60;;
48945;SDS011;34999;50.940;3.998;2024-03-25T05:48:31;56.90;;;16.80;;
48945;SDS011;34999;50.940;3.998;2024-03-25T05:51:01;51.77;;;15.93;;
48945;SDS011;34999;50.940;3.998;2024-03-25T05:53:32;67.73;;;16.63;;
48945;SDS011;34999;50.940;3.998;2024-03-25T05:56:00;62.57;;;16.27;;
48945;SDS011;34999;50.940;3.998;2024-03-25T05:58:28;56.70;;;15.40;;
48945;SDS011;34999;50.940;3.998;2024-03-25T06:00:55;52.53;;;15.80;;
48945;SDS011;34999;50.940;3.998;2024-03-25T06:03:23;56.47;;;15.93;;
48945;SDS011;34999;50.940;3.998;2024-03-25T06:05:50;54.73;;;15.70;;
48945;SDS011;34999;50.940;3.998;2024-03-25T06:08:17;55.93;;;16.50;;
48945;SDS011;34999;50.940;3.998;2024-03-25T06:10:44;56.23;;;15.10;;
48945;SDS011;34999;50.940;3.998;2024-03-25T06:13:11;54.13;;;15.30;;
48945;SDS011;34999;50.940;3.998;2024-03-25T06:15:38;66.33;;;16.27;;
48945;SDS011;34999;50.940;3.998;2024-03-25T06:18:04;59.83;;;14.53;;
48945;SDS011;34999;50.940;3.998;2024-03-25T06:20:33;61.93;;;14.83;;
48945;SDS011;34999;50.940;3.998;2024-03-25T06:23:21;70.10;;;14.70;;
48945;SDS011;34999;50.940;3.998;2024-03-25T06:25:52;51.23;;;15.90;;
48945;SDS011;34999;50.940;3.998;2024-03-25T06:28:20;76.23;;;15.70;;
48945;SDS011;34999;50.940;3.998;2024-03-25T06:30:47;58.63;;;14.90;;
48945;SDS011;34999;50.940;3.998;2024-03-25T06:37:15;49.67;;;15.93;;
48945;SDS011;34999;50.940;3.998;2024-03-25T06:39:42;54.60;;;15.00;;
48945;SDS011;34999;50.940;3.998;2024-03-25T06:42:11;64.47;;;16.37;;
48945;SDS011;34999;50.940;3.998;2024-03-25T06:44:40;65.77;;;16.23;;
48945;SDS011;34999;50.940;3.998;2024-03-25T06:47:08;56.33;;;14.90;;
48945;SDS011;34999;50.940;3.998;2024-03-25T06:49:34;45.70;;;14.57;;
48945;SDS011;34999;50.940;3.998;2024-03-25T06:54:51;54.97;;;15.77;;
48945;SDS011;34999;50.940;3.998;2024-03-25T06:57:27;65.50;;;16.67;;
48945;SDS011;34999;50.940;3.998;2024-03-25T06:59:54;61.17;;;15.20;;
48945;SDS011;34999;50.940;3.998;2024-03-25T07:02:21;57.60;;;16.27;;
48945;SDS011;34999;50.940;3.998;2024-03-25T07:04:47;51.17;;;15.90;;
48945;SDS011;34999;50.940;3.998;2024-03-25T07:07:16;52.03;;;17.17;;
48945;SDS011;34999;50.940;3.998;2024-03-25T07:09:45;63.90;;;17.80;;
48945;SDS011;34999;50.940;3.998;2024-03-25T07:12:12;51.40;;;17.70;;
48945;SDS011;34999;50.940;3.998;2024-03-25T07:14:38;51.90;;;15.20;;
48945;SDS011;34999;50.940;3.998;2024-03-25T07:17:05;52.03;;;15.47;;
48945;SDS011;34999;50.940;3.998;2024-03-25T07:19:34;53.30;;;14.77;;
48945;SDS011;34999;50.940;3.998;2024-03-25T07:25:43;47.87;;;14.27;;
48945;SDS011;34999;50.940;3.998;2024-03-25T07:28:10;35.77;;;12.80;;
48945;SDS011;34999;50.940;3.998;2024-03-25T07:30:36;40.60;;;12.57;;
48945;SDS011;34999;50.940;3.998;2024-03-25T07:33:05;47.17;;;14.00;;
48945;SDS011;34999;50.940;3.998;2024-03-25T07:38:17;37.43;;;12.77;;
48945;SDS011;34999;50.940;3.998;2024-03-25T07:40:45;26.43;;;10.63;;
48945;SDS011;34999;50.940;3.998;2024-03-25T07:43:11;31.37;;;11.37;;
48945;SDS011;34999;50.940;3.998;2024-03-25T07:45:38;31.90;;;11.13;;
48945;SDS011;34999;50.940;3.998;2024-03-25T07:48:05;24.43;;;10.10;;
48945;SDS011;34999;50.940;3.998;2024-03-25T07:50:31;31.60;;;10.30;;
48945;SDS011;34999;50.940;3.998;2024-03-25T07:52:58;26.33;;;9.60;;
48945;SDS011;34999;50.940;3.998;2024-03-25T07:55:24;19.87;;;9.60;;
48945;SDS011;34999;50.940;3.998;2024-03-25T07:57:52;25.67;;;9.37;;
48945;SDS011;34999;50.940;3.998;2024-03-25T08:00:18;22.40;;;9.20;;
48945;SDS011;34999;50.940;3.998;2024-03-25T08:02:44;21.93;;;9.60;;
48945;SDS011;34999;50.940;3.998;2024-03-25T08:05:11;27.97;;;9.93;;
48945;SDS011;34999;50.940;3.998;2024-03-25T08:07:37;25.50;;;9.23;;
48945;SDS011;34999;50.940;3.998;2024-03-25T08:10:04;29.17;;;9.47;;
48945;SDS011;34999;50.940;3.998;2024-03-25T08:12:31;21.90;;;9.60;;
48945;SDS011;34999;50.940;3.998;2024-03-25T08:15:02;22.90;;;10.20;;
48945;SDS011;34999;50.940;3.998;2024-03-25T08:17:29;25.23;;;9.53;;
48945;SDS011;34999;50.940;3.998;2024-03-25T08:19:55;31.50;;;12.10;;
48945;SDS011;34999;50.940;3.998;2024-03-25T08:22:21;32.77;;;11.40;;
48945;SDS011;34999;50.940;3.998;2024-03-25T08:24:48;28.10;;;11.80;;
48945;SDS011;34999;50.940;3.998;2024-03-25T08:27:14;36.87;;;12.50;;
48945;SDS011;34999;50.940;3.998;2024-03-25T08:29:40;33.47;;;12.60;;
48945;SDS011;34999;50.940;3.998;2024-03-25T08:32:08;35.43;;;15.63;;
48945;SDS011;34999;50.940;3.998;2024-03-25T08:34:34;40.37;;;18.43;;
48945;SDS011;34999;50.940;3.998;2024-03-25T08:37:01;48.87;;;17.60;;
48945;SDS011;34999;50.940;3.998;2024-03-25T08:39:28;42.27;;;18.63;;
48945;SDS011;34999;50.940;3.998;2024-03-25T08:41:54;45.73;;;20.17;;
48945;SDS011;34999;50.940;3.998;2024-03-25T08:44:20;32.33;;;15.17;;
48945;SDS011;34999;50.940;3.998;2024-03-25T08:46:47;37.93;;;16.07;;
48945;SDS011;34999;50.940;3.998;2024-03-25T08:49:15;38.63;;;17.07;;
48945;SDS011;34999;50.940;3.998;2024-03-25T08:51:41;41.13;;;19.10;;
48945;SDS011;34999;50.940;3.998;2024-03-25T08:54:08;36.57;;;16.57;;
48945;SDS011;34999;50.940;3.998;2024-03-25T08:56:34;38.13;;;18.07;;
48945;SDS011;34999;50.940;3.998;2024-03-25T08:59:01;29.73;;;16.20;;
48945;SDS011;34999;50.940;3.998;2024-03-25T09:01:27;33.73;;;17.77;;
48945;SDS011;34999;50.940;3.998;2024-03-25T09:03:53;40.70;;;19.20;;
48945;SDS011;34999;50.940;3.998;2024-03-25T09:06:21;42.63;;;20.37;;
48945;SDS011;34999;50.940;3.998;2024-03-25T09:08:51;42.47;;;19.50;;
48945;SDS011;34999;50.940;3.998;2024-03-25T09:11:35;41.27;;;19.47;;
48945;SDS011;34999;50.940;3.998;2024-03-25T09:14:02;34.30;;;18.57;;
48945;SDS011;34999;50.940;3.998;2024-03-25T09:16:28;38.47;;;18.63;;
48945;SDS011;34999;50.940;3.998;2024-03-25T09:18:55;32.00;;;17.03;;
48945;SDS011;34999;50.940;3.998;2024-03-25T09:21:22;29.03;;;14.93;;
48945;SDS011;34999;50.940;3.998;2024-03-25T09:23:49;35.17;;;15.10;;
48945;SDS011;34999;50.940;3.998;2024-03-25T09:26:15;28.37;;;13.53;;
48945;SDS011;34999;50.940;3.998;2024-03-25T09:28:42;26.37;;;12.20;;
48945;SDS011;34999;50.940;3.998;2024-03-25T09:31:08;24.23;;;11.60;;
48945;SDS011;34999;50.940;3.998;2024-03-25T09:36:41;22.23;;;10.03;;
48945;SDS011;34999;50.940;3.998;2024-03-25T09:39:07;19.87;;;9.57;;
48945;SDS011;34999;50.940;3.998;2024-03-25T09:41:34;21.50;;;9.43;;
48945;SDS011;34999;50.940;3.998;2024-03-25T09:44:01;22.10;;;7.80;;
48945;SDS011;34999;50.940;3.998;2024-03-25T09:46:31;17.03;;;8.50;;
48945;SDS011;34999;50.940;3.998;2024-03-25T09:48:58;16.20;;;7.20;;
48945;SDS011;34999;50.940;3.998;2024-03-25T09:51:25;14.73;;;6.33;;
48945;SDS011;34999;50.940;3.998;2024-03-25T09:53:53;11.83;;;6.40;;
48945;SDS011;34999;50.940;3.998;2024-03-25T09:56:19;14.80;;;6.27;;
48945;SDS011;34999;50.940;3.998;2024-03-25T09:58:46;12.17;;;5.67;;
48945;SDS011;34999;50.940;3.998;2024-03-25T10:01:13;12.37;;;5.50;;
48945;SDS011;34999;50.940;3.998;2024-03-25T10:03:40;16.90;;;6.23;;
48945;SDS011;34999;50.940;3.998;2024-03-25T10:06:06;15.67;;;5.43;;
48945;SDS011;34999;50.940;3.998;2024-03-25T10:15:26;11.10;;;5.07;;
48945;SDS011;34999;50.940;3.998;2024-03-25T10:17:53;11.17;;;5.30;;
48945;SDS011;34999;50.940;3.998;2024-03-25T10:20:19;13.10;;;5.23;;
48945;SDS011;34999;50.940;3.998;2024-03-25T10:22:46;10.27;;;4.90;;
48945;SDS011;34999;50.940;3.998;2024-03-25T10:25:20;12.53;;;4.77;;
48945;SDS011;34999;50.940;3.998;2024-03-25T10:27:54;11.30;;;5.27;;
48945;SDS011;34999;50.940;3.998;2024-03-25T10:30:21;10.20;;;4.40;;
48945;SDS011;34999;50.940;3.998;2024-03-25T10:32:58;11.70;;;4.30;;
48945;SDS011;34999;50.940;3.998;2024-03-25T10:35:28;9.70;;;4.13;;
48945;SDS011;34999;50.940;3.998;2024-03-25T10:37:58;12.50;;;4.93;;
48945;SDS011;34999;50.940;3.998;2024-03-25T10:40:27;7.83;;;4.23;;
48945;SDS011;34999;50.940;3.998;2024-03-25T10:46:35;12.13;;;4.40;;
48945;SDS011;34999;50.940;3.998;2024-03-25T10:49:05;14.43;;;4.83;;
48945;SDS011;34999;50.940;3.998;2024-03-25T10:51:42;7.70;;;4.00;;
48945;SDS011;34999;50.940;3.998;2024-03-25T10:54:11;11.57;;;4.03;;
48945;SDS011;34999;50.940;3.998;2024-03-25T10:56:38;11.70;;;4.33;;
48945;SDS011;34999;50.940;3.998;2024-03-25T10:59:05;7.13;;;3.07;;
48945;SDS011;34999;50.940;3.998;2024-03-25T11:01:34;7.27;;;3.27;;
48945;SDS011;34999;50.940;3.998;2024-03-25T11:04:01;6.33;;;3.10;;
48945;SDS011;34999;50.940;3.998;2024-03-25T11:06:30;5.70;;;3.20;;
48945;SDS011;34999;50.940;3.998;2024-03-25T11:08:57;6.73;;;3.30;;
48945;SDS011;34999;50.940;3.998;2024-03-25T11:11:30;5.20;;;3.13;;
48945;SDS011;34999;50.940;3.998;2024-03-25T11:13:57;7.20;;;3.13;;
48945;SDS011;34999;50.940;3.998;2024-03-25T11:20:10;5.10;;;3.20;;
48945;SDS011;34999;50.940;3.998;2024-03-25T11:22:47;13.60;;;3.63;;
48945;SDS011;34999;50.940;3.998;2024-03-25T11:25:13;7.67;;;4.00;;
48945;SDS011;34999;50.940;3.998;2024-03-25T11:27:42;6.73;;;3.83;;
48945;SDS011;34999;50.940;3.998;2024-03-25T11:30:09;8.43;;;4.10;;
48945;SDS011;34999;50.940;3.998;2024-03-25T11:32:45;6.43;;;4.03;;
48945;SDS011;34999;50.940;3.998;2024-03-25T11:35:14;7.37;;;3.97;;
48945;SDS011;34999;50.940;3.998;2024-03-25T11:37:40;6.30;;;3.50;;
48945;SDS011;34999;50.940;3.998;2024-03-25T11:40:07;4.43;;;3.03;;
48945;SDS011;34999;50.940;3.998;2024-03-25T11:42:35;6.87;;;3.27;;
48945;SDS011;34999;50.940;3.998;2024-03-25T11:45:04;6.33;;;3.13;;
48945;SDS011;34999;50.940;3.998;2024-03-25T11:47:30;7.77;;;3.60;;
48945;SDS011;34999;50.940;3.998;2024-03-25T11:49:57;7.50;;;2.90;;
48945;SDS011;34999;50.940;3.998;2024-03-25T11:52:29;4.17;;;3.07;;
48945;SDS011;34999;50.940;3.998;2024-03-25T11:54:55;4.03;;;2.90;;
48945;SDS011;34999;50.940;3.998;2024-03-25T11:57:22;4.60;;;3.00;;
48945;SDS011;34999;50.940;3.998;2024-03-25T12:03:29;5.90;;;3.10;;
48945;SDS011;34999;50.940;3.998;2024-03-25T12:05:56;6.00;;;3.00;;
48945;SDS011;34999;50.940;3.998;2024-03-25T12:08:24;5.53;;;3.50;;
48945;SDS011;34999;50.940;3.998;2024-03-25T12:10:50;6.83;;;3.30;;
48945;SDS011;34999;50.940;3.998;2024-03-25T12:13:36;5.90;;;3.20;;
48945;SDS011;34999;50.940;3.998;2024-03-25T12:16:04;6.97;;;3.27;;
48945;SDS011;34999;50.940;3.998;2024-03-25T12:18:31;5.00;;;3.30;;
48945;SDS011;34999;50.940;3.998;2024-03-25T12:20:58;5.40;;;3.20;;
48945;SDS011;34999;50.940;3.998;2024-03-25T12:23:29;4.90;;;3.10;;
48945;SDS011;34999;50.940;3.998;2024-03-25T12:25:55;2.80;;;2.60;;
48945;SDS011;34999;50.940;3.998;2024-03-25T12:28:22;7.10;;;2.60;;
48945;SDS011;34999;50.940;3.998;2024-03-25T12:30:50;3.57;;;2.47;;
48945;SDS011;34999;50.940;3.998;2024-03-25T12:33:17;3.40;;;2.60;;
48945;SDS011;34999;50.940;3.998;2024-03-25T12:35:45;5.57;;;2.70;;
48945;SDS011;34999;50.940;3.998;2024-03-25T12:38:21;3.53;;;2.50;;
48945;SDS011;34999;50.940;3.998;2024-03-25T12:40:50;2.97;;;2.23;;
48945;SDS011;34999;50.940;3.998;2024-03-25T12:43:17;4.17;;;2.17;;
48945;SDS011;34999;50.940;3.998;2024-03-25T12:45:43;9.80;;;2.90;;
48945;SDS011;34999;50.940;3.998;2024-03-25T12:55:16;4.93;;;2.30;;
48945;SDS011;34999;50.940;3.998;2024-03-25T13:01:25;3.23;;;2.03;;
48945;SDS011;34999;50.940;3.998;2024-03-25T13:10:18;2.47;;;2.07;;
48945;SDS011;34999;50.940;3.998;2024-03-25T13:12:45;3.73;;;2.13;;
48945;SDS011;34999;50.940;3.998;2024-03-25T13:15:11;2.50;;;2.30;;
48945;SDS011;34999;50.940;3.998;2024-03-25T13:21:20;4.20;;;2.10;;
48945;SDS011;34999;50.940;3.998;2024-03-25T13:23:47;3.63;;;2.73;;
48945;SDS011;34999;50.940;3.998;2024-03-25T13:26:13;5.33;;;2.67;;
48945;SDS011;34999;50.940;3.998;2024-03-25T13:28:40;4.90;;;2.70;;
48945;SDS011;34999;50.940;3.998;2024-03-25T13:31:06;4.20;;;2.63;;
48945;SDS011;34999;50.940;3.998;2024-03-25T13:33:32;2.60;;;2.40;;
48945;SDS011;34999;50.940;3.998;2024-03-25T13:36:02;5.43;;;2.83;;
48945;SDS011;34999;50.940;3.998;2024-03-25T13:42:11;3.03;;;2.73;;
48945;SDS011;34999;50.940;3.998;2024-03-25T13:44:37;4.37;;;3.07;;
48945;SDS011;34999;50.940;3.998;2024-03-25T13:47:04;3.90;;;2.70;;
48945;SDS011;34999;50.940;3.998;2024-03-25T13:49:30;3.57;;;2.60;;
48945;SDS011;34999;50.940;3.998;2024-03-25T13:52:00;6.33;;;2.57;;
48945;SDS011;34999;50.940;3.998;2024-03-25T13:54:28;4.37;;;2.67;;
48945;SDS011;34999;50.940;3.998;2024-03-25T13:56:55;2.67;;;2.47;;
48945;SDS011;34999;50.940;3.998;2024-03-25T13:59:23;2.60;;;2.40;;
48945;SDS011;34999;50.940;3.998;2024-03-25T14:01:49;6.57;;;2.60;;
48945;SDS011;34999;50.940;3.998;2024-03-25T14:04:16;6.70;;;2.80;;
48945;SDS011;34999;50.940;3.998;2024-03-25T14:06:43;8.43;;;2.67;;
48945;SDS011;34999;50.940;3.998;2024-03-25T14:09:10;4.13;;;2.70;;
48945;SDS011;34999;50.940;3.998;2024-03-25T14:11:48;3.73;;;2.40;;
48945;SDS011;34999;50.940;3.998;2024-03-25T14:14:14;2.80;;;2.30;;
48945;SDS011;34999;50.940;3.998;2024-03-25T14:16:42;3.20;;;2.40;;
48945;SDS011;34999;50.940;3.998;2024-03-25T14:19:09;5.43;;;2.43;;
48945;SDS011;34999;50.940;3.998;2024-03-25T14:21:35;3.33;;;2.57;;
48945;SDS011;34999;50.940;3.998;2024-03-25T14:24:03;3.57;;;2.67;;
48945;SDS011;34999;50.940;3.998;2024-03-25T14:26:30;4.87;;;2.40;;
48945;SDS011;34999;50.940;3.998;2024-03-25T14:28:57;4.47;;;2.30;;
48945;SDS011;34999;50.940;3.998;2024-03-25T14:31:23;6.77;;;2.70;;
48945;SDS011;34999;50.940;3.998;2024-03-25T14:33:51;4.37;;;2.63;;
48945;SDS011;34999;50.940;3.998;2024-03-25T14:36:17;3.73;;;2.27;;
48945;SDS011;34999;50.940;3.998;2024-03-25T14:38:44;2.73;;;2.40;;
48945;SDS011;34999;50.940;3.998;2024-03-25T14:41:11;3.53;;;2.20;;
48945;SDS011;34999;50.940;3.998;2024-03-25T14:43:38;4.60;;;2.40;;
48945;SDS011;34999;50.940;3.998;2024-03-25T14:46:05;7.87;;;3.13;;
48945;SDS011;34999;50.940;3.998;2024-03-25T14:48:31;7.97;;;2.63;;
48945;SDS011;34999;50.940;3.998;2024-03-25T14:50:59;5.27;;;2.40;;
48945;SDS011;34999;50.940;3.998;2024-03-25T14:53:26;6.83;;;2.63;;
48945;SDS011;34999;50.940;3.998;2024-03-25T14:55:52;3.83;;;2.40;;
48945;SDS011;34999;50.940;3.998;2024-03-25T14:58:18;2.33;;;2.13;;
48945;SDS011;34999;50.940;3.998;2024-03-25T15:00:45;5.20;;;2.57;;
48945;SDS011;34999;50.940;3.998;2024-03-25T15:03:11;3.53;;;2.30;;
48945;SDS011;34999;50.940;3.998;2024-03-25T15:05:38;2.77;;;2.07;;
48945;SDS011;34999;50.940;3.998;2024-03-25T15:08:06;5.60;;;2.30;;
48945;SDS011;34999;50.940;3.998;2024-03-25T15:10:35;2.63;;;2.20;;
48945;SDS011;34999;50.940;3.998;2024-03-25T15:13:02;3.47;;;2.60;;
48945;SDS011;34999;50.940;3.998;2024-03-25T15:15:28;2.53;;;2.30;;
48945;SDS011;34999;50.940;3.998;2024-03-25T15:17:55;2.30;;;2.10;;
48945;SDS011;34999;50.940;3.998;2024-03-25T15:20:21;3.90;;;2.30;;
48945;SDS011;34999;50.940;3.998;2024-03-25T15:22:48;3.30;;;2.30;;
48945;SDS011;34999;50.940;3.998;2024-03-25T15:25:15;3.20;;;2.23;;
48945;SDS011;34999;50.940;3.998;2024-03-25T15:27:42;2.40;;;2.20;;
48945;SDS011;34999;50.940;3.998;2024-03-25T15:30:09;3.37;;;2.20;;
48945;SDS011;34999;50.940;3.998;2024-03-25T15:32:35;2.30;;;2.20;;
48945;SDS011;34999;50.940;3.998;2024-03-25T15:35:02;3.77;;;2.20;;
48945;SDS011;34999;50.940;3.998;2024-03-25T15:37:28;2.33;;;2.20;;
48945;SDS011;34999;50.940;3.998;2024-03-25T15:43:37;6.60;;;2.37;;
48945;SDS011;34999;50.940;3.998;2024-03-25T15:46:04;3.00;;;2.40;;
48945;SDS011;34999;50.940;3.998;2024-03-25T15:48:30;3.40;;;1.90;;
48945;SDS011;34999;50.940;3.998;2024-03-25T15:50:57;5.47;;;2.20;;
48945;SDS011;34999;50.940;3.998;2024-03-25T15:53:23;5.13;;;2.43;;
48945;SDS011;34999;50.940;3.998;2024-03-25T15:55:50;1.83;;;1.73;;
48945;SDS011;34999;50.940;3.998;2024-03-25T15:58:16;12.20;;;2.27;;
48945;SDS011;34999;50.940;3.998;2024-03-25T16:00:44;1.70;;;1.60;;
48945;SDS011;34999;50.940;3.998;2024-03-25T16:06:52;2.50;;;1.70;;
48945;SDS011;34999;50.940;3.998;2024-03-25T16:09:18;2.67;;;1.80;;
48945;SDS011;34999;50.940;3.998;2024-03-25T16:11:44;3.17;;;1.90;;
48945;SDS011;34999;50.940;3.998;2024-03-25T16:14:11;2.93;;;2.10;;
48945;SDS011;34999;50.940;3.998;2024-03-25T16:16:41;3.27;;;1.70;;